createdAt,value
2019-02-04T00:02:01.494Z,4.97
2019-02-04T00:04:30.572Z,4.67
2019-02-04T00:06:56.365Z,4.03
2019-02-04T00:09:22.939Z,4.17
2019-02-04T00:11:49.767Z,4.73
2019-02-04T00:14:16.798Z,4.60
2019-02-04T00:16:43.187Z,4.70
2019-02-04T00:19:09.864Z,4.20
2019-02-04T00:21:36.281Z,4.37
2019-02-04T00:24:03.043Z,4.13
2019-02-04T00:26:38.194Z,5.20
2019-02-04T00:29:04.656Z,6.10
2019-02-04T00:31:31.022Z,5.57
2019-02-04T00:33:57.949Z,5.07
2019-02-04T00:36:24.631Z,7.50
2019-02-04T00:38:51.695Z,5.37
2019-02-04T00:41:18.378Z,5.07
2019-02-04T00:43:44.888Z,5.53
2019-02-04T00:46:11.722Z,6.50
2019-02-04T00:48:38.522Z,5.90
2019-02-04T00:51:09.627Z,6.00
2019-02-04T00:53:33.949Z,7.00
2019-02-04T00:56:00.518Z,6.40
2019-02-04T00:58:27.108Z,6.93
2019-02-04T01:00:53.815Z,5.90
2019-02-04T01:03:20.538Z,6.10
2019-02-04T01:05:47.490Z,6.43
2019-02-04T01:08:14.003Z,6.07
2019-02-04T01:10:40.438Z,6.23
2019-02-04T01:13:06.815Z,5.50
2019-02-04T01:15:33.602Z,5.20
2019-02-04T01:18:00.298Z,5.47
2019-02-04T01:20:30.181Z,5.20
2019-02-04T01:22:57.184Z,5.00
2019-02-04T01:25:24.028Z,4.17
2019-02-04T01:27:50.861Z,6.00
2019-02-04T01:30:21.670Z,6.33
2019-02-04T01:32:48.284Z,5.60
2019-02-04T01:35:14.946Z,7.10
2019-02-04T01:37:45.551Z,7.37
2019-02-04T01:40:15.863Z,8.53
2019-02-04T01:42:42.654Z,7.20
2019-02-04T01:45:09.503Z,6.23
2019-02-04T01:47:35.937Z,6.37
2019-02-04T01:50:05.745Z,5.67
2019-02-04T01:52:34.700Z,5.80
2019-02-04T01:55:02.291Z,4.87
2019-02-04T01:57:30.891Z,6.63
2019-02-04T01:59:57.221Z,6.27
2019-02-04T02:02:23.711Z,7.60
2019-02-04T02:04:50.314Z,7.07
2019-02-04T02:07:17.188Z,7.10
2019-02-04T02:09:43.906Z,6.50
2019-02-04T02:12:10.274Z,6.70
2019-02-04T02:14:36.766Z,6.17
2019-02-04T02:17:03.252Z,5.43
2019-02-04T02:19:30.494Z,5.70
2019-02-04T02:21:59.795Z,5.70
2019-02-04T02:27:15.646Z,5.20
2019-02-04T02:32:50.304Z,5.53
2019-02-04T02:35:16.770Z,5.13
2019-02-04T02:37:43.123Z,4.73
2019-02-04T02:40:30.571Z,4.77
2019-02-04T02:42:57.459Z,4.80
2019-02-04T02:45:24.079Z,4.90
2019-02-04T02:47:50.682Z,6.23
2019-02-04T02:50:17.157Z,6.00
2019-02-04T02:52:43.658Z,4.57
2019-02-04T02:55:13.070Z,5.20
2019-02-04T02:57:39.529Z,5.17
2019-02-04T03:00:15.520Z,4.43
2019-02-04T03:02:42.016Z,5.20
2019-02-04T03:05:10.998Z,4.70
2019-02-04T03:07:37.636Z,4.60
2019-02-04T03:10:06.868Z,4.90
2019-02-04T03:12:33.256Z,3.90
2019-02-04T03:15:00.354Z,4.40
2019-02-04T03:17:27.378Z,4.40
2019-02-04T03:19:53.670Z,4.60
2019-02-04T03:22:20.059Z,3.80
2019-02-04T03:24:46.329Z,4.13
2019-02-04T03:27:12.834Z,3.50
2019-02-04T03:29:39.326Z,3.43
2019-02-04T03:32:05.852Z,4.20
2019-02-04T03:34:35.574Z,4.33
2019-02-04T03:37:01.933Z,4.30
2019-02-04T03:39:28.396Z,4.87
2019-02-04T03:41:55.003Z,4.17
2019-02-04T03:44:21.351Z,3.90
2019-02-04T03:46:47.855Z,4.20
2019-02-04T03:49:14.772Z,4.40
2019-02-04T03:51:41.929Z,4.70
2019-02-04T03:54:08.382Z,4.50
2019-02-04T03:56:40.781Z,4.37
2019-02-04T03:59:07.144Z,4.53
2019-02-04T04:01:36.409Z,4.70
2019-02-04T04:04:04.686Z,4.63
2019-02-04T04:06:34.732Z,4.40
2019-02-04T04:09:09.216Z,4.87
2019-02-04T04:11:39.082Z,5.30
2019-02-04T04:14:08.836Z,5.87
2019-02-04T04:16:40.492Z,7.37
2019-02-04T04:19:08.341Z,5.77
2019-02-04T04:21:38.631Z,5.40
2019-02-04T04:24:07.784Z,6.03
2019-02-04T04:26:39.448Z,5.67
2019-02-04T04:29:08.838Z,5.30
2019-02-04T04:31:41.041Z,6.37
2019-02-04T04:34:13.918Z,6.73
2019-02-04T04:36:49.251Z,6.80
2019-02-04T04:39:22.994Z,7.53
2019-02-04T04:41:53.431Z,6.60
2019-02-04T04:46:55.622Z,6.70
2019-02-04T04:49:23.155Z,6.17
2019-02-04T04:51:49.574Z,5.87
2019-02-04T04:54:16.071Z,7.07
2019-02-04T04:56:42.545Z,6.13
2019-02-04T04:59:09.206Z,5.80
2019-02-04T05:01:35.808Z,5.83
2019-02-04T05:04:02.416Z,5.27
2019-02-04T05:06:28.666Z,4.30
2019-02-04T05:08:55.233Z,5.17
2019-02-04T05:11:22.755Z,4.73
2019-02-04T05:13:49.236Z,6.00
2019-02-04T05:16:15.660Z,6.17
2019-02-04T05:18:42.369Z,5.87
2019-02-04T05:21:08.749Z,6.23
2019-02-04T05:23:38.158Z,6.10
2019-02-04T05:26:04.733Z,5.40
2019-02-04T05:28:31.367Z,5.00
2019-02-04T05:30:58.018Z,6.10
2019-02-04T05:33:24.454Z,6.87
2019-02-04T05:35:51.332Z,7.23
2019-02-04T05:38:17.851Z,6.17
2019-02-04T05:40:44.292Z,6.50
2019-02-04T05:43:10.854Z,6.00
2019-02-04T05:45:40.159Z,5.70
2019-02-04T05:48:06.690Z,6.17
2019-02-04T05:50:33.063Z,5.53
2019-02-04T05:52:59.755Z,5.57
2019-02-04T05:55:26.611Z,6.10
2019-02-04T05:57:52.967Z,6.30
2019-02-04T06:00:24.056Z,6.43
2019-02-04T06:02:50.615Z,8.57
2019-02-04T06:05:17.786Z,7.70
2019-02-04T06:07:44.381Z,7.67
2019-02-04T06:10:10.846Z,7.97
2019-02-04T06:12:37.510Z,8.37
2019-02-04T06:15:07.769Z,7.00
2019-02-04T06:17:34.595Z,6.50
2019-02-04T06:20:02.993Z,6.73
2019-02-04T06:22:30.977Z,6.47
2019-02-04T06:24:57.462Z,7.47
2019-02-04T06:27:24.431Z,8.13
2019-02-04T06:29:51.128Z,6.53
2019-02-04T06:32:17.871Z,6.53
2019-02-04T06:34:44.420Z,7.37
2019-02-04T06:37:11.136Z,7.07
2019-02-04T06:39:37.855Z,6.50
2019-02-04T06:42:04.526Z,7.20
2019-02-04T06:44:31.419Z,7.90
2019-02-04T06:46:58.472Z,6.50
2019-02-04T06:49:25.242Z,6.73
2019-02-04T06:51:52.284Z,5.87
2019-02-04T06:54:20.867Z,5.77
2019-02-04T06:56:47.352Z,6.97
2019-02-04T06:59:13.638Z,6.83
2019-02-04T07:01:39.927Z,6.20
2019-02-04T07:04:06.689Z,6.57
2019-02-04T07:06:33.299Z,7.43
2019-02-04T07:08:59.966Z,8.73
2019-02-04T07:11:26.408Z,8.00
2019-02-04T07:13:53.128Z,7.70
2019-02-04T07:16:19.642Z,8.20
2019-02-04T07:18:46.161Z,9.53
2019-02-04T07:21:13.089Z,13.03
2019-02-04T07:23:40.182Z,10.83
2019-02-04T07:26:06.644Z,11.90
2019-02-04T07:28:33.150Z,10.93
2019-02-04T07:30:59.792Z,10.17
2019-02-04T07:33:26.484Z,8.80
2019-02-04T07:35:53.013Z,8.60
2019-02-04T07:38:19.570Z,8.57
2019-02-04T07:40:46.007Z,9.00
2019-02-04T07:43:12.597Z,10.43
2019-02-04T07:45:39.209Z,8.73
2019-02-04T07:48:05.696Z,8.93
2019-02-04T07:50:32.167Z,9.23
2019-02-04T07:52:58.639Z,8.77
2019-02-04T07:55:25.140Z,7.77
2019-02-04T07:57:51.513Z,14.37
2019-02-04T08:00:20.196Z,15.30
2019-02-04T08:02:48.881Z,21.80
2019-02-04T08:05:15.390Z,17.87
2019-02-04T08:07:41.870Z,17.77
2019-02-04T08:10:10.732Z,15.70
2019-02-04T08:12:37.006Z,14.77
2019-02-04T08:15:10.050Z,12.17
2019-02-04T08:17:36.799Z,10.10
2019-02-04T08:20:05.207Z,9.13
2019-02-04T08:22:31.906Z,9.97
2019-02-04T08:24:58.512Z,10.40
2019-02-04T08:27:25.101Z,12.47
2019-02-04T08:29:51.728Z,9.87
2019-02-04T08:32:18.363Z,10.83
2019-02-04T08:34:45.192Z,10.53
2019-02-04T08:37:11.683Z,12.43
2019-02-04T08:39:38.209Z,8.40
2019-02-04T08:42:04.826Z,10.03
2019-02-04T08:44:31.435Z,8.80
2019-02-04T08:46:57.937Z,9.07
2019-02-04T08:49:24.528Z,7.70
2019-02-04T08:51:50.913Z,7.73
2019-02-04T08:54:17.161Z,8.00
2019-02-04T08:56:44.116Z,11.67
2019-02-04T08:59:10.602Z,7.83
2019-02-04T09:01:36.942Z,7.60
2019-02-04T09:04:03.657Z,8.53
2019-02-04T09:06:30.023Z,7.80
2019-02-04T09:08:56.398Z,7.17
2019-02-04T09:11:22.840Z,9.27
2019-02-04T09:13:49.182Z,7.87
2019-02-04T09:16:16.005Z,9.10
2019-02-04T09:18:44.888Z,8.13
2019-02-04T09:21:10.687Z,8.97
2019-02-04T09:23:37.101Z,8.60
2019-02-04T09:26:03.768Z,7.90
2019-02-04T09:28:30.090Z,7.90
2019-02-04T09:30:56.577Z,8.00
2019-02-04T09:33:23.013Z,8.50
2019-02-04T09:35:49.889Z,7.87
2019-02-04T09:38:16.185Z,9.87
2019-02-04T09:40:43.278Z,10.63
2019-02-04T09:43:09.790Z,10.43
2019-02-04T09:45:36.302Z,10.37
2019-02-04T09:48:04.941Z,12.63
2019-02-04T09:50:34.216Z,13.93
2019-02-04T09:53:00.606Z,11.57
2019-02-04T09:55:29.782Z,12.37
2019-02-04T09:57:56.422Z,12.63
2019-02-04T10:00:26.102Z,12.60
2019-02-04T10:02:52.479Z,12.37
2019-02-04T10:05:19.663Z,10.98
2019-02-04T10:07:46.268Z,10.13
2019-02-04T10:10:20.694Z,10.20
2019-02-04T10:12:47.440Z,10.75
2019-02-04T10:15:17.023Z,10.90
2019-02-04T10:17:43.705Z,9.93
2019-02-04T10:20:15.393Z,6.70
2019-02-04T10:22:41.820Z,7.60
2019-02-04T10:25:12.018Z,7.95
2019-02-04T10:27:38.502Z,7.25
2019-02-04T10:30:08.575Z,8.23
2019-02-04T10:32:35.106Z,9.03
2019-02-04T10:35:01.624Z,7.97
2019-02-04T10:37:27.914Z,9.70
2019-02-04T10:39:54.260Z,9.15
2019-02-04T10:42:20.876Z,8.63
2019-02-04T10:44:47.298Z,8.10
2019-02-04T10:47:13.614Z,18.02
2019-02-04T10:49:39.850Z,11.28
2019-02-04T10:52:06.320Z,9.98
2019-02-04T10:54:32.682Z,9.10
2019-02-04T10:56:59.066Z,9.35
2019-02-04T10:59:25.424Z,8.08
2019-02-04T11:01:52.424Z,8.33
2019-02-04T11:04:18.713Z,7.50
2019-02-04T11:06:45.315Z,6.75
2019-02-04T11:09:11.852Z,8.48
2019-02-04T11:11:38.243Z,8.20
2019-02-04T11:14:05.207Z,8.03
2019-02-04T11:16:31.577Z,8.13
2019-02-04T11:18:58.048Z,8.28
2019-02-04T11:21:25.071Z,7.92
2019-02-04T11:23:51.537Z,9.43
2019-02-04T11:26:18.137Z,8.68
2019-02-04T11:28:44.531Z,9.25
2019-02-04T11:31:11.037Z,9.98
2019-02-04T11:33:37.502Z,8.33
2019-02-04T11:36:04.546Z,8.83
2019-02-04T11:38:30.999Z,8.85
2019-02-04T11:40:57.537Z,8.05
2019-02-04T11:43:23.948Z,10.95
2019-02-04T11:45:50.389Z,10.38
2019-02-04T11:48:20.162Z,11.35
2019-02-04T11:50:46.582Z,11.08
2019-02-04T11:53:13.253Z,9.23
2019-02-04T11:55:42.834Z,11.65
2019-02-04T11:58:09.318Z,11.43
2019-02-04T12:00:36.770Z,12.10
2019-02-04T12:03:05.616Z,10.25
2019-02-04T12:05:32.138Z,13.30
2019-02-04T12:07:58.501Z,12.50
2019-02-04T12:10:28.595Z,13.58
2019-02-04T12:12:55.037Z,11.55
2019-02-04T12:15:21.905Z,11.73
2019-02-04T12:17:48.469Z,14.68
2019-02-04T12:20:16.346Z,13.15
2019-02-04T12:22:43.038Z,13.50
2019-02-04T12:25:12.454Z,13.68
2019-02-04T12:27:38.751Z,15.30
2019-02-04T12:30:25.192Z,14.87
2019-02-04T12:32:51.733Z,15.30
2019-02-04T12:35:18.228Z,15.90
2019-02-04T12:37:44.540Z,14.73
2019-02-04T12:40:16.975Z,14.43
2019-02-04T12:42:43.447Z,13.67
2019-02-04T12:45:22.037Z,12.93
2019-02-04T12:47:48.736Z,12.47
2019-02-04T12:50:15.166Z,11.50
2019-02-04T12:52:42.028Z,13.00
2019-02-04T12:55:15.109Z,12.87
2019-02-04T12:57:42.071Z,12.47
2019-02-04T13:00:14.922Z,12.03
2019-02-04T13:02:41.458Z,12.27
2019-02-04T13:05:11.582Z,11.53
2019-02-04T13:07:37.942Z,11.60
2019-02-04T13:10:06.706Z,10.40
2019-02-04T13:12:33.243Z,10.43
2019-02-04T13:14:59.612Z,10.67
2019-02-04T13:17:26.895Z,10.73
2019-02-04T13:19:53.443Z,9.40
2019-02-04T13:22:20.000Z,9.60
2019-02-04T13:24:46.385Z,9.83
2019-02-04T13:27:12.881Z,9.60
2019-02-04T13:29:39.350Z,9.63
2019-02-04T13:32:06.332Z,9.20
2019-02-04T13:34:32.922Z,9.30
2019-02-04T13:36:59.412Z,9.33
2019-02-04T13:39:25.652Z,9.77
2019-02-04T13:41:52.003Z,9.50
2019-02-04T13:44:18.682Z,9.27
2019-02-04T13:46:48.049Z,10.10
2019-02-04T13:49:14.689Z,10.30
2019-02-04T13:51:41.362Z,9.27
2019-02-04T13:54:08.064Z,8.70
2019-02-04T13:56:34.728Z,8.60
2019-02-04T13:59:01.117Z,9.57
2019-02-04T14:01:27.582Z,8.90
2019-02-04T14:03:53.884Z,8.27
2019-02-04T14:06:23.472Z,7.93
2019-02-04T14:08:50.070Z,7.90
2019-02-04T14:11:16.356Z,7.87
2019-02-04T14:13:42.893Z,8.30
2019-02-04T14:16:09.489Z,8.93
2019-02-04T14:18:35.878Z,8.60
2019-02-04T14:21:02.455Z,6.90
2019-02-04T14:23:28.801Z,9.13
2019-02-04T14:25:55.598Z,11.03
2019-02-04T14:28:22.028Z,8.90
2019-02-04T14:30:48.499Z,8.10
2019-02-04T14:33:15.056Z,7.77
2019-02-04T14:35:41.525Z,7.50
2019-02-04T14:38:08.154Z,7.70
2019-02-04T14:40:34.894Z,7.77
2019-02-04T14:43:05.017Z,8.33
2019-02-04T14:45:58.139Z,7.70
2019-02-04T14:48:28.241Z,8.77
2019-02-04T14:51:09.922Z,8.03
2019-02-04T14:53:51.842Z,7.00
2019-02-04T14:56:37.068Z,7.97
2019-02-04T14:59:07.368Z,11.83
2019-02-04T15:02:06.550Z,16.57
2019-02-04T15:05:10.432Z,15.63
2019-02-04T15:08:06.753Z,16.37
2019-02-04T15:10:45.924Z,11.37
2019-02-04T15:13:18.776Z,9.20
2019-02-04T15:15:51.910Z,7.47
2019-02-04T15:18:34.089Z,7.60
2019-02-04T15:21:16.223Z,9.13
2019-02-04T15:24:08.856Z,11.43
2019-02-04T15:26:45.586Z,11.70
2019-02-04T15:29:30.582Z,10.73
2019-02-04T15:32:17.674Z,22.57
2019-02-04T15:35:04.262Z,19.13
2019-02-04T15:37:28.443Z,13.70
2019-02-04T15:40:10.126Z,12.17
2019-02-04T15:43:08.723Z,13.40
2019-02-04T15:45:59.971Z,15.17
2019-02-04T15:48:30.120Z,13.53
2019-02-04T15:51:09.062Z,14.03
2019-02-04T15:53:35.584Z,11.77
2019-02-04T15:56:02.056Z,10.10
2019-02-04T15:58:28.476Z,9.10
2019-02-04T16:00:54.849Z,7.70
2019-02-04T16:03:21.185Z,7.73
2019-02-04T16:05:47.677Z,7.93
2019-02-04T16:08:14.082Z,8.40
2019-02-04T16:10:40.653Z,7.00
2019-02-04T16:13:07.151Z,12.17
2019-02-04T16:15:34.039Z,13.27
2019-02-04T16:18:01.073Z,13.77
2019-02-04T16:20:27.676Z,11.83
2019-02-04T16:22:58.373Z,11.83
2019-02-04T16:25:22.699Z,12.20
2019-02-04T16:27:49.437Z,11.97
2019-02-04T16:30:17.990Z,15.03
2019-02-04T16:32:44.512Z,15.07
2019-02-04T16:35:13.919Z,14.07
2019-02-04T16:37:40.610Z,13.03
2019-02-04T16:40:10.486Z,13.43
2019-02-04T16:42:36.797Z,11.37
2019-02-04T16:45:06.425Z,11.07
2019-02-04T16:47:32.661Z,10.40
2019-02-04T16:49:59.053Z,10.33
2019-02-04T16:52:25.751Z,9.27
2019-02-04T16:54:52.094Z,10.30
2019-02-04T16:57:18.514Z,9.07
2019-02-04T16:59:44.759Z,8.63
2019-02-04T17:02:11.310Z,10.40
2019-02-04T17:04:37.773Z,12.40
2019-02-04T17:07:04.652Z,15.57
2019-02-04T17:09:30.966Z,14.27
2019-02-04T17:11:57.587Z,15.33
2019-02-04T17:14:24.057Z,14.03
2019-02-04T17:16:50.386Z,13.00
2019-02-04T17:19:16.780Z,12.20
2019-02-04T17:21:43.384Z,11.40
2019-02-04T17:24:09.953Z,10.10
2019-02-04T17:26:38.359Z,10.07
2019-02-04T17:29:04.814Z,10.63
2019-02-04T17:31:31.532Z,9.03
2019-02-04T17:33:58.040Z,9.87
2019-02-04T17:36:24.526Z,9.03
2019-02-04T17:38:50.999Z,9.27
2019-02-04T17:41:17.521Z,8.07
2019-02-04T17:43:43.881Z,8.23
2019-02-04T17:46:10.236Z,7.63
2019-02-04T17:48:37.670Z,7.70
2019-02-04T17:51:04.038Z,6.23
2019-02-04T17:53:34.354Z,6.80
2019-02-04T17:55:59.312Z,6.63
2019-02-04T17:58:25.943Z,6.43
2019-02-04T18:00:53.214Z,5.97
2019-02-04T18:03:19.804Z,5.90
2019-02-04T18:05:46.247Z,6.00
2019-02-04T18:08:13.134Z,6.43
2019-02-04T18:10:39.927Z,7.20
2019-02-04T18:13:06.466Z,6.67
2019-02-04T18:15:33.125Z,5.97
2019-02-04T18:17:59.360Z,7.33
2019-02-04T18:20:26.350Z,6.47
2019-02-04T18:22:52.809Z,7.30
2019-02-04T18:25:20.581Z,7.37
2019-02-04T18:27:47.455Z,7.00
2019-02-04T18:30:21.893Z,7.60
2019-02-04T18:32:48.262Z,7.77
2019-02-04T18:35:15.534Z,8.17
2019-02-04T18:37:42.023Z,8.43
2019-02-04T18:40:11.554Z,9.27
2019-02-04T18:42:38.339Z,8.50
2019-02-04T18:45:11.274Z,9.33
2019-02-04T18:47:44.431Z,8.97
2019-02-04T18:50:13.764Z,10.03
2019-02-04T18:52:40.871Z,9.73
2019-02-04T18:55:11.123Z,8.87
2019-02-04T18:57:37.603Z,9.20
2019-02-04T19:00:16.599Z,8.10
2019-02-04T19:02:43.161Z,8.83
2019-02-04T19:05:12.539Z,9.07
2019-02-04T19:07:38.847Z,7.90
2019-02-04T19:10:08.925Z,8.67
2019-02-04T19:12:35.361Z,8.70
2019-02-04T19:15:01.837Z,7.93
2019-02-04T19:17:28.095Z,8.40
2019-02-04T19:19:54.458Z,8.10
2019-02-04T19:22:20.964Z,8.27
2019-02-04T19:24:47.744Z,7.97
2019-02-04T19:27:14.594Z,7.67
2019-02-04T19:29:43.019Z,7.83
2019-02-04T19:32:09.638Z,9.43
2019-02-04T19:34:36.066Z,10.40
2019-02-04T19:37:03.025Z,13.67
2019-02-04T19:39:29.586Z,18.67
2019-02-04T19:41:56.105Z,19.57
2019-02-04T19:44:22.900Z,18.43
2019-02-04T19:46:49.261Z,17.37
2019-02-04T19:49:15.721Z,18.50
2019-02-04T19:51:42.098Z,16.97
2019-02-04T19:54:08.469Z,17.93
2019-02-04T19:56:34.921Z,17.93
2019-02-04T19:59:01.411Z,17.50
2019-02-04T20:01:29.946Z,20.63
2019-02-04T20:03:56.677Z,20.17
2019-02-04T20:06:23.310Z,19.37
2019-02-04T20:08:49.759Z,17.57
2019-02-04T20:11:16.267Z,19.30
2019-02-04T20:13:42.623Z,20.23
2019-02-04T20:16:09.226Z,19.73
2019-02-04T20:18:35.749Z,18.53
2019-02-04T20:21:04.362Z,18.10
2019-02-04T20:23:30.860Z,20.70
2019-02-04T20:25:57.116Z,17.37
2019-02-04T20:28:23.649Z,16.23
2019-02-04T20:30:50.261Z,16.60
2019-02-04T20:33:16.838Z,13.87
2019-02-04T20:35:43.381Z,12.60
2019-02-04T20:38:10.259Z,12.17
2019-02-04T20:40:36.577Z,12.10
2019-02-04T20:43:04.528Z,10.97
2019-02-04T20:45:33.157Z,9.70
2019-02-04T20:48:02.019Z,10.43
2019-02-04T20:50:31.216Z,11.10
2019-02-04T20:52:58.085Z,10.30
2019-02-04T20:55:25.076Z,10.57
2019-02-04T20:57:51.602Z,9.20
2019-02-04T21:00:24.733Z,7.13
2019-02-04T21:02:51.187Z,8.70
2019-02-04T21:05:20.798Z,7.97
2019-02-04T21:07:47.627Z,8.73
2019-02-04T21:10:19.327Z,8.00
2019-02-04T21:12:46.206Z,7.37
2019-02-04T21:15:15.155Z,8.40
2019-02-04T21:17:41.760Z,8.47
2019-02-04T21:20:16.440Z,8.33
2019-02-04T21:22:43.185Z,9.70
2019-02-04T21:25:10.648Z,8.03
2019-02-04T21:27:39.623Z,7.73
2019-02-04T21:30:10.148Z,6.90
2019-02-04T21:32:36.681Z,8.20
2019-02-04T21:35:04.622Z,9.00
2019-02-04T21:37:31.128Z,7.90
2019-02-04T21:39:57.940Z,7.90
2019-02-04T21:42:24.839Z,8.40
2019-02-04T21:44:51.446Z,10.90
2019-02-04T21:47:18.785Z,10.50
2019-02-04T21:49:45.540Z,10.40
2019-02-04T21:52:12.603Z,9.17
2019-02-04T21:54:40.281Z,10.83
2019-02-04T21:57:09.522Z,9.63
2019-02-04T21:59:36.433Z,9.07
2019-02-04T22:02:03.601Z,8.87
2019-02-04T22:04:30.543Z,8.70
2019-02-04T22:06:57.797Z,8.83
2019-02-04T22:09:24.727Z,8.60
2019-02-04T22:11:51.219Z,9.17
2019-02-04T22:14:17.905Z,9.67
2019-02-04T22:16:44.165Z,10.77
2019-02-04T22:19:10.829Z,12.60
2019-02-04T22:21:37.151Z,10.97
2019-02-04T22:24:03.990Z,10.70
2019-02-04T22:26:30.399Z,11.87
2019-02-04T22:28:56.757Z,10.50
2019-02-04T22:31:23.134Z,9.77
2019-02-04T22:33:49.450Z,9.43
2019-02-04T22:36:15.814Z,9.57
2019-02-04T22:38:42.121Z,9.23
2019-02-04T22:41:08.808Z,9.53
2019-02-04T22:43:35.202Z,8.67
2019-02-04T22:46:01.964Z,8.83
2019-02-04T22:48:28.207Z,9.47
2019-02-04T22:50:54.680Z,8.33
2019-02-04T22:53:21.054Z,9.20
2019-02-04T22:55:47.562Z,9.90
2019-02-04T22:58:14.050Z,8.77
2019-02-04T23:00:58.767Z,8.33
2019-02-04T23:03:26.912Z,9.23
2019-02-04T23:05:53.397Z,8.60
2019-02-04T23:08:19.678Z,7.53
2019-02-04T23:10:46.053Z,8.37
2019-02-04T23:13:12.520Z,8.77
2019-02-04T23:15:38.855Z,8.17
2019-02-04T23:18:05.483Z,8.77
2019-02-04T23:20:32.017Z,11.53
2019-02-04T23:22:58.394Z,11.57
2019-02-04T23:25:24.973Z,10.90
2019-02-04T23:27:51.315Z,9.50
2019-02-04T23:30:18.196Z,8.13
2019-02-04T23:32:44.702Z,8.43
2019-02-04T23:35:11.177Z,8.70
2019-02-04T23:37:37.762Z,8.03
2019-02-04T23:40:07.252Z,11.70
2019-02-04T23:42:33.602Z,8.30
2019-02-04T23:44:59.985Z,8.43
2019-02-04T23:47:26.338Z,7.90
2019-02-04T23:49:52.613Z,7.83
2019-02-04T23:52:18.977Z,7.30
2019-02-04T23:54:45.383Z,6.53
2019-02-04T23:57:11.850Z,7.23
2019-02-04T23:59:38.189Z,10.40
